createdAt,value
2022-08-03T00:00:36.582Z,1.47
2022-08-03T00:03:05.280Z,0.90
2022-08-03T00:05:34.105Z,0.97
2022-08-03T00:08:02.467Z,1.10
2022-08-03T00:10:32.147Z,1.13
2022-08-03T00:13:00.613Z,1.07
2022-08-03T00:15:28.779Z,0.70
2022-08-03T00:17:57.038Z,1.30
2022-08-03T00:20:25.403Z,0.90
2022-08-03T00:22:53.893Z,0.80
2022-08-03T00:25:22.038Z,1.00
2022-08-03T00:27:51.564Z,0.67
2022-08-03T00:30:19.898Z,1.00
2022-08-03T00:32:48.087Z,0.90
2022-08-03T00:35:32.606Z,1.00
2022-08-03T00:38:04.744Z,0.80
2022-08-03T00:40:33.027Z,0.73
2022-08-03T00:43:04.903Z,0.70
2022-08-03T00:45:34.637Z,0.87
2022-08-03T00:48:03.831Z,0.80
2022-08-03T00:50:34.954Z,0.93
2022-08-03T00:53:05.445Z,0.80
2022-08-03T00:55:34.124Z,0.90
2022-08-03T00:58:06.596Z,0.83
2022-08-03T01:00:38.885Z,0.67
2022-08-03T01:03:07.551Z,0.90
2022-08-03T01:05:44.072Z,0.70
2022-08-03T01:08:21.945Z,0.90
2022-08-03T01:10:58.301Z,0.80
2022-08-03T01:14:01.620Z,0.80
2022-08-03T01:16:36.856Z,0.80
2022-08-03T01:19:18.789Z,0.90
2022-08-03T01:21:57.724Z,1.17
2022-08-03T01:24:40.908Z,1.20
2022-08-03T01:27:11.921Z,0.80
2022-08-03T01:30:00.340Z,0.77
2022-08-03T01:33:02.434Z,1.20
2022-08-03T01:35:33.070Z,1.07
2022-08-03T01:38:08.151Z,0.90
2022-08-03T01:40:39.146Z,0.70
2022-08-03T01:43:10.066Z,0.90
2022-08-03T01:45:40.948Z,1.10
2022-08-03T01:48:10.647Z,0.87
2022-08-03T01:50:39.485Z,0.57
2022-08-03T01:53:08.959Z,0.70
2022-08-03T01:55:40.209Z,0.90
2022-08-03T01:58:09.625Z,0.80
2022-08-03T02:00:40.723Z,0.97
2022-08-03T02:03:09.875Z,1.13
2022-08-03T02:05:40.414Z,0.80
2022-08-03T02:08:13.959Z,1.27
2022-08-03T02:10:44.260Z,0.90
2022-08-03T02:13:13.764Z,0.90
2022-08-03T02:15:44.733Z,1.00
2022-08-03T02:18:14.215Z,0.93
2022-08-03T02:20:44.460Z,0.80
2022-08-03T02:23:12.627Z,1.00
2022-08-03T02:25:46.980Z,1.00
2022-08-03T02:28:19.408Z,1.00
2022-08-03T02:30:54.849Z,1.10
2022-08-03T02:33:28.130Z,0.90
2022-08-03T02:35:58.379Z,0.97
2022-08-03T02:38:34.029Z,1.00
2022-08-03T02:41:04.783Z,1.00
2022-08-03T02:43:56.809Z,1.20
2022-08-03T02:46:32.506Z,1.00
2022-08-03T02:49:50.084Z,1.30
2022-08-03T02:51:53.539Z,1.33
2022-08-03T02:54:23.434Z,1.00
2022-08-03T02:56:53.265Z,1.03
2022-08-03T02:59:24.609Z,0.90
2022-08-03T03:01:56.139Z,1.00
2022-08-03T03:04:26.348Z,1.00
2022-08-03T03:07:03.675Z,1.00
2022-08-03T03:09:40.495Z,0.90
2022-08-03T03:12:13.871Z,0.80
2022-08-03T03:14:42.309Z,0.90
2022-08-03T03:17:13.211Z,0.70
2022-08-03T03:19:42.823Z,0.70
2022-08-03T03:22:11.907Z,0.90
2022-08-03T03:24:42.868Z,0.97
2022-08-03T03:27:11.361Z,0.90
2022-08-03T03:29:45.185Z,0.90
2022-08-03T03:32:15.194Z,0.90
2022-08-03T03:34:44.795Z,0.80
2022-08-03T03:37:12.973Z,0.50
2022-08-03T03:39:41.173Z,0.80
2022-08-03T03:42:09.460Z,0.73
2022-08-03T03:44:37.816Z,1.00
2022-08-03T03:47:06.072Z,0.80
2022-08-03T03:49:35.834Z,0.80
2022-08-03T03:52:04.202Z,0.80
2022-08-03T03:54:41.705Z,0.83
2022-08-03T03:57:10.446Z,0.70
2022-08-03T03:59:41.999Z,0.70
2022-08-03T04:02:11.509Z,0.90
2022-08-03T04:04:58.922Z,0.60
2022-08-03T04:07:46.112Z,0.57
2022-08-03T04:10:31.637Z,0.60
2022-08-03T04:13:03.252Z,0.77
2022-08-03T04:15:33.610Z,1.00
2022-08-03T04:18:02.752Z,0.90
2022-08-03T04:20:36.484Z,0.70
2022-08-03T04:23:13.717Z,0.70
2022-08-03T04:25:45.166Z,0.90
2022-08-03T04:28:30.578Z,1.00
2022-08-03T04:31:02.368Z,0.87
2022-08-03T04:33:33.238Z,0.67
2022-08-03T04:36:08.176Z,0.70
2022-08-03T04:38:39.835Z,0.90
2022-08-03T04:41:09.551Z,0.83
2022-08-03T04:43:40.779Z,0.73
2022-08-03T04:46:10.324Z,0.60
2022-08-03T04:48:41.279Z,0.63
2022-08-03T04:51:14.389Z,0.60
2022-08-03T04:53:43.913Z,0.63
2022-08-03T04:56:12.266Z,1.00
2022-08-03T04:58:44.467Z,0.77
2022-08-03T05:01:13.155Z,1.20
2022-08-03T05:03:41.658Z,0.80
2022-08-03T05:06:11.299Z,0.73
2022-08-03T05:08:46.421Z,0.80
2022-08-03T05:11:16.362Z,0.80
2022-08-03T05:13:44.723Z,0.70
2022-08-03T05:16:13.908Z,0.90
2022-08-03T05:18:42.948Z,0.80
2022-08-03T05:21:13.958Z,0.80
2022-08-03T05:23:43.676Z,1.07
2022-08-03T05:26:12.906Z,0.77
2022-08-03T05:28:50.763Z,0.80
2022-08-03T05:31:20.440Z,0.80
2022-08-03T05:33:49.328Z,0.93
2022-08-03T05:36:17.866Z,1.07
2022-08-03T05:38:47.800Z,0.70
2022-08-03T05:41:23.110Z,0.80
2022-08-03T05:43:52.572Z,0.70
2022-08-03T05:46:21.474Z,1.03
2022-08-03T05:48:49.831Z,0.83
2022-08-03T05:51:18.393Z,0.80
2022-08-03T05:53:48.470Z,0.83
2022-08-03T05:56:17.083Z,1.23
2022-08-03T05:58:46.625Z,0.80
2022-08-03T06:01:15.804Z,0.83
2022-08-03T06:03:44.167Z,0.80
2022-08-03T06:06:12.509Z,0.70
2022-08-03T06:08:41.847Z,0.80
2022-08-03T06:11:11.976Z,0.87
2022-08-03T06:13:40.547Z,0.80
2022-08-03T06:16:08.932Z,0.70
2022-08-03T06:18:37.835Z,0.77
2022-08-03T06:21:14.265Z,0.80
2022-08-03T06:23:54.578Z,0.70
2022-08-03T06:26:29.480Z,0.70
2022-08-03T06:28:57.796Z,0.60
2022-08-03T06:31:33.412Z,0.80
2022-08-03T06:34:33.976Z,0.60
2022-08-03T06:36:52.581Z,0.60
2022-08-03T06:39:23.500Z,0.63
2022-08-03T06:41:54.500Z,0.60
2022-08-03T06:44:23.108Z,0.67
2022-08-03T06:46:51.912Z,1.00
2022-08-03T06:49:20.376Z,0.60
2022-08-03T06:52:05.022Z,0.50
2022-08-03T06:54:37.047Z,0.60
2022-08-03T06:57:08.388Z,0.60
2022-08-03T07:00:10.364Z,0.60
2022-08-03T07:02:28.425Z,0.60
2022-08-03T07:04:57.921Z,0.60
2022-08-03T07:07:26.357Z,0.70
2022-08-03T07:09:56.768Z,0.60
2022-08-03T07:12:29.974Z,0.70
2022-08-03T07:15:02.214Z,0.60
2022-08-03T07:17:33.571Z,0.70
2022-08-03T07:20:03.188Z,0.87
2022-08-03T07:22:31.548Z,0.70
2022-08-03T07:25:00.292Z,0.80
2022-08-03T07:27:30.482Z,0.70
2022-08-03T07:29:59.181Z,0.60
2022-08-03T07:32:28.589Z,0.70
2022-08-03T07:35:00.501Z,0.67
2022-08-03T07:37:30.684Z,0.70
2022-08-03T07:39:59.239Z,0.50
2022-08-03T07:42:27.531Z,1.10
2022-08-03T07:44:57.743Z,0.63
2022-08-03T07:47:34.773Z,0.60
2022-08-03T07:50:05.016Z,0.67
2022-08-03T07:52:54.061Z,0.63
2022-08-03T07:55:25.099Z,0.70
2022-08-03T07:58:04.352Z,0.50
2022-08-03T08:00:34.164Z,0.60
2022-08-03T08:03:02.389Z,0.63
2022-08-03T08:05:30.748Z,0.60
2022-08-03T08:07:59.537Z,0.50
2022-08-03T08:10:28.479Z,0.50
2022-08-03T08:12:57.295Z,0.93
2022-08-03T08:15:25.731Z,0.63
2022-08-03T08:17:57.719Z,0.60
2022-08-03T08:20:31.285Z,0.67
2022-08-03T08:23:02.676Z,0.43
2022-08-03T08:25:33.503Z,0.60
2022-08-03T08:28:30.434Z,0.70
2022-08-03T08:30:52.502Z,0.60
2022-08-03T08:33:22.569Z,0.60
2022-08-03T08:35:53.126Z,0.70
2022-08-03T08:38:21.784Z,0.70
2022-08-03T08:40:51.023Z,0.77
2022-08-03T08:43:19.342Z,0.60
2022-08-03T08:45:50.772Z,0.90
2022-08-03T08:48:24.775Z,0.77
2022-08-03T08:50:55.331Z,0.67
2022-08-03T08:53:27.776Z,0.50
2022-08-03T08:56:00.996Z,0.70
2022-08-03T08:58:32.075Z,1.10
2022-08-03T09:01:00.559Z,0.80
2022-08-03T09:03:31.032Z,0.80
2022-08-03T09:06:02.356Z,0.80
2022-08-03T09:08:32.075Z,0.60
2022-08-03T09:11:01.092Z,0.70
2022-08-03T09:13:32.213Z,0.70
2022-08-03T09:16:15.124Z,0.80
2022-08-03T09:18:46.827Z,0.60
2022-08-03T09:21:34.292Z,0.70
2022-08-03T09:24:06.242Z,0.57
2022-08-03T09:26:36.891Z,0.60
2022-08-03T09:29:13.122Z,0.60
2022-08-03T09:31:44.337Z,0.50
2022-08-03T09:34:16.299Z,0.50
2022-08-03T09:36:46.627Z,2.10
2022-08-03T09:39:16.776Z,3.23
2022-08-03T09:41:46.971Z,0.93
2022-08-03T09:44:24.553Z,0.90
2022-08-03T09:46:56.008Z,0.70
2022-08-03T09:49:26.161Z,0.60
2022-08-03T09:52:31.977Z,0.60
2022-08-03T09:54:44.518Z,1.07
2022-08-03T09:57:23.958Z,0.50
2022-08-03T10:00:01.886Z,0.50
2022-08-03T10:02:33.519Z,0.60
2022-08-03T10:05:04.046Z,0.53
2022-08-03T10:07:46.067Z,0.60
2022-08-03T10:10:28.959Z,0.50
2022-08-03T10:13:06.914Z,0.60
2022-08-03T10:16:25.220Z,0.70
2022-08-03T10:18:30.361Z,0.63
2022-08-03T10:21:05.478Z,0.60
2022-08-03T10:23:36.258Z,0.43
2022-08-03T10:26:06.135Z,0.50
2022-08-03T10:28:39.273Z,0.50
2022-08-03T10:31:12.037Z,0.50
2022-08-03T10:33:50.824Z,0.40
2022-08-03T10:36:25.447Z,0.60
2022-08-03T10:38:54.817Z,0.70
2022-08-03T10:41:24.768Z,0.70
2022-08-03T10:43:57.938Z,0.60
2022-08-03T10:46:27.631Z,0.70
2022-08-03T10:48:56.871Z,0.60
2022-08-03T10:51:32.146Z,0.50
2022-08-03T10:54:02.169Z,0.60
2022-08-03T10:56:58.435Z,0.60
2022-08-03T11:00:03.501Z,0.50
2022-08-03T11:03:03.035Z,0.60
2022-08-03T11:05:34.132Z,0.70
2022-08-03T11:08:25.271Z,0.60
2022-08-03T11:10:55.743Z,0.70
2022-08-03T11:13:26.012Z,0.40
2022-08-03T11:16:01.559Z,0.50
2022-08-03T11:18:31.572Z,0.60
2022-08-03T11:21:01.392Z,0.60
2022-08-03T11:24:02.663Z,0.43
2022-08-03T11:26:34.172Z,0.60
2022-08-03T11:29:34.961Z,0.50
2022-08-03T11:32:03.242Z,0.60
2022-08-03T11:34:31.851Z,0.47
2022-08-03T11:37:24.084Z,0.70
2022-08-03T11:39:57.253Z,0.73
2022-08-03T11:42:45.710Z,0.60
2022-08-03T11:45:14.964Z,0.50
2022-08-03T11:47:50.509Z,0.60
2022-08-03T11:50:20.267Z,0.50
2022-08-03T11:52:49.274Z,0.50
2022-08-03T11:55:22.025Z,0.50
2022-08-03T11:59:10.767Z,0.60
2022-08-03T12:00:40.659Z,0.70
2022-08-03T12:03:12.273Z,0.60
2022-08-03T12:05:51.037Z,0.77
2022-08-03T12:08:32.903Z,0.60
2022-08-03T12:11:05.814Z,1.27
2022-08-03T12:14:45.506Z,2.63
2022-08-03T12:16:35.663Z,2.03
2022-08-03T12:19:06.721Z,1.10
2022-08-03T12:21:35.241Z,0.60
2022-08-03T12:24:06.059Z,0.57
2022-08-03T12:26:58.576Z,0.60
2022-08-03T12:29:28.462Z,0.57
2022-08-03T12:31:56.949Z,0.50
2022-08-03T12:34:25.228Z,0.70
2022-08-03T12:37:00.107Z,0.60
2022-08-03T12:39:31.069Z,0.70
2022-08-03T12:42:01.830Z,0.60
2022-08-03T12:44:33.830Z,0.50
2022-08-03T12:47:03.650Z,0.60
2022-08-03T12:49:51.098Z,0.50
2022-08-03T12:52:29.927Z,0.70
2022-08-03T12:55:06.465Z,0.70
2022-08-03T12:57:44.082Z,0.60
2022-08-03T13:00:19.888Z,0.60
2022-08-03T13:03:38.215Z,0.90
2022-08-03T13:05:54.061Z,0.73
2022-08-03T13:08:23.783Z,0.70
2022-08-03T13:10:52.495Z,0.50
2022-08-03T13:13:39.615Z,0.70
2022-08-03T13:16:07.856Z,0.60
2022-08-03T13:18:36.073Z,0.60
2022-08-03T13:21:04.784Z,0.50
2022-08-03T13:23:33.941Z,0.73
2022-08-03T13:26:02.207Z,0.67
2022-08-03T13:28:31.876Z,0.70
2022-08-03T13:31:00.113Z,0.40
2022-08-03T13:33:28.815Z,0.53
2022-08-03T13:35:57.966Z,0.50
2022-08-03T13:38:27.148Z,0.50
2022-08-03T13:40:55.957Z,0.50
2022-08-03T13:43:24.225Z,0.50
2022-08-03T13:45:57.890Z,0.50
2022-08-03T13:48:36.098Z,0.60
2022-08-03T13:51:21.596Z,0.70
2022-08-03T13:53:51.597Z,0.50
2022-08-03T13:56:19.862Z,0.50
2022-08-03T13:58:48.452Z,0.50
2022-08-03T14:01:29.734Z,0.40
2022-08-03T14:04:06.758Z,0.57
2022-08-03T14:06:49.872Z,0.80
2022-08-03T14:09:18.352Z,0.40
2022-08-03T14:12:07.153Z,0.60
2022-08-03T14:14:35.965Z,0.70
2022-08-03T14:17:05.815Z,0.50
2022-08-03T14:19:34.631Z,0.50
2022-08-03T14:22:21.099Z,0.60
2022-08-03T14:24:49.588Z,0.50
2022-08-03T14:27:18.200Z,0.53
2022-08-03T14:29:46.463Z,0.50
2022-08-03T14:32:16.160Z,0.70
2022-08-03T14:34:44.437Z,0.50
2022-08-03T14:37:12.731Z,0.60
2022-08-03T14:42:29.834Z,0.50
2022-08-03T14:45:05.884Z,0.40
2022-08-03T14:50:29.467Z,0.57
2022-08-03T14:50:41.025Z,0.47
2022-08-03T14:53:12.977Z,0.50
2022-08-03T14:55:49.752Z,0.80
2022-08-03T14:58:20.738Z,0.77
2022-08-03T15:00:49.972Z,0.90
2022-08-03T15:03:23.240Z,0.60
2022-08-03T15:05:52.858Z,0.40
2022-08-03T15:08:22.550Z,0.90
2022-08-03T15:10:51.639Z,0.50
2022-08-03T15:13:20.560Z,0.40
2022-08-03T15:15:49.735Z,0.50
2022-08-03T15:18:20.307Z,0.60
2022-08-03T15:20:50.685Z,0.60
2022-08-03T15:23:23.358Z,0.60
2022-08-03T15:26:27.969Z,0.57
2022-08-03T15:28:43.253Z,0.53
2022-08-03T15:31:25.857Z,0.50
2022-08-03T15:33:56.467Z,0.53
2022-08-03T15:36:24.674Z,0.40
2022-08-03T15:38:54.712Z,0.67
2022-08-03T15:41:23.516Z,1.03
2022-08-03T15:43:52.803Z,0.83
2022-08-03T15:46:29.762Z,0.50
2022-08-03T15:49:00.383Z,0.50
2022-08-03T15:51:28.707Z,0.70
2022-08-03T15:53:58.425Z,0.47
2022-08-03T15:56:33.815Z,0.50
2022-08-03T15:59:12.573Z,0.40
2022-08-03T16:01:43.344Z,1.30
2022-08-03T16:04:13.471Z,0.70
2022-08-03T16:06:42.418Z,0.70
2022-08-03T16:09:23.558Z,0.47
2022-08-03T16:11:59.725Z,0.80
2022-08-03T16:14:35.660Z,0.50
2022-08-03T16:17:06.697Z,0.40
2022-08-03T16:19:36.330Z,0.53
2022-08-03T16:22:10.136Z,0.50
2022-08-03T16:24:38.372Z,0.57
2022-08-03T16:27:37.189Z,0.60
2022-08-03T16:29:56.751Z,0.57
2022-08-03T16:32:24.992Z,0.77
2022-08-03T16:34:54.986Z,0.50
2022-08-03T16:37:38.346Z,0.67
2022-08-03T16:40:17.702Z,0.43
2022-08-03T16:42:48.762Z,0.40
2022-08-03T16:45:17.515Z,0.40
2022-08-03T16:47:46.106Z,0.40
2022-08-03T16:50:19.853Z,0.40
2022-08-03T16:52:48.829Z,0.50
2022-08-03T16:55:43.018Z,0.47
2022-08-03T16:58:06.843Z,0.40
2022-08-03T17:00:41.856Z,0.40
2022-08-03T17:03:18.633Z,0.63
2022-08-03T17:05:51.147Z,0.40
2022-08-03T17:08:26.969Z,0.60
2022-08-03T17:10:56.565Z,0.53
2022-08-03T17:13:38.864Z,0.50
2022-08-03T17:16:10.221Z,0.40
2022-08-03T17:18:47.460Z,0.50
2022-08-03T17:21:18.960Z,0.50
2022-08-03T17:23:55.959Z,0.73
2022-08-03T17:26:30.726Z,0.50
2022-08-03T17:29:12.955Z,0.87
2022-08-03T17:31:48.778Z,0.73
2022-08-03T17:34:19.767Z,1.00
2022-08-03T17:37:06.228Z,0.77
2022-08-03T17:39:58.268Z,2.50
2022-08-03T17:42:31.217Z,1.47
2022-08-03T17:45:03.972Z,1.40
2022-08-03T17:47:42.948Z,0.90
2022-08-03T17:50:25.154Z,0.60
2022-08-03T17:53:07.154Z,7.47
2022-08-03T17:55:57.535Z,5.83
2022-08-03T17:58:38.479Z,4.77
2022-08-03T18:02:03.695Z,2.50
2022-08-03T18:04:29.776Z,1.00
2022-08-03T18:07:11.565Z,1.20
2022-08-03T18:10:03.975Z,0.60
2022-08-03T18:12:45.038Z,2.13
2022-08-03T18:15:21.972Z,4.70
2022-08-03T18:18:01.901Z,1.23
2022-08-03T18:20:41.149Z,1.10
2022-08-03T18:23:20.423Z,0.90
2022-08-03T18:25:59.125Z,0.53
2022-08-03T18:28:29.047Z,0.67
2022-08-03T18:30:58.396Z,0.90
2022-08-03T18:34:16.217Z,0.87
2022-08-03T18:36:22.025Z,0.80
2022-08-03T18:38:59.673Z,0.80
2022-08-03T18:41:32.754Z,1.00
2022-08-03T18:44:08.147Z,0.87
2022-08-03T18:47:07.409Z,0.73
2022-08-03T18:49:53.931Z,0.40
2022-08-03T18:52:27.875Z,0.70
2022-08-03T18:55:19.900Z,0.47
2022-08-03T18:58:00.999Z,0.50
2022-08-03T19:00:42.326Z,0.60
2022-08-03T19:03:42.924Z,0.70
2022-08-03T19:06:20.391Z,0.70
2022-08-03T19:08:56.513Z,0.80
2022-08-03T19:12:13.899Z,0.60
2022-08-03T19:14:25.772Z,0.73
2022-08-03T19:17:05.866Z,0.70
2022-08-03T19:19:43.936Z,0.70
2022-08-03T19:22:15.900Z,0.70
2022-08-03T19:24:47.803Z,0.70
2022-08-03T19:27:16.704Z,0.80
2022-08-03T19:29:59.142Z,0.80
2022-08-03T19:32:30.399Z,0.80
2022-08-03T19:35:00.343Z,0.70
2022-08-03T19:37:38.557Z,0.67
2022-08-03T19:40:10.845Z,0.70
2022-08-03T19:42:44.761Z,0.70
2022-08-03T19:46:04.759Z,0.60
2022-08-03T19:48:20.146Z,1.30
2022-08-03T19:50:54.063Z,0.90
2022-08-03T19:53:25.201Z,0.87
2022-08-03T19:56:07.020Z,0.80
2022-08-03T19:58:36.596Z,0.70
2022-08-03T20:01:19.358Z,0.60
2022-08-03T20:03:51.353Z,0.70
2022-08-03T20:06:23.060Z,0.70
2022-08-03T20:08:52.847Z,0.70
2022-08-03T20:11:28.814Z,1.00
2022-08-03T20:13:59.325Z,0.83
2022-08-03T20:16:29.301Z,1.23
2022-08-03T20:18:57.566Z,0.80
2022-08-03T20:21:29.805Z,0.77
2022-08-03T20:24:23.687Z,0.90
2022-08-03T20:26:55.374Z,0.90
2022-08-03T20:29:42.778Z,0.90
2022-08-03T20:32:24.486Z,1.07
2022-08-03T20:34:53.537Z,1.00
2022-08-03T20:37:23.258Z,1.30
2022-08-03T20:39:51.570Z,1.20
2022-08-03T20:42:21.409Z,1.40
2022-08-03T20:45:04.439Z,1.00
2022-08-03T20:50:27.046Z,1.23
2022-08-03T20:52:56.683Z,1.50
2022-08-03T20:55:53.767Z,1.13
2022-08-03T20:58:15.006Z,1.53
2022-08-03T21:00:43.423Z,1.10
2022-08-03T21:06:05.143Z,1.07
2022-08-03T21:08:38.881Z,1.17
2022-08-03T21:11:20.018Z,1.30
2022-08-03T21:13:12.153Z,1.17
2022-08-03T21:13:56.529Z,1.43
2022-08-03T21:16:27.617Z,1.60
2022-08-03T21:19:00.359Z,1.73
2022-08-03T21:21:34.141Z,1.70
2022-08-03T21:24:37.153Z,1.47
2022-08-03T21:27:06.041Z,1.40
2022-08-03T21:29:35.617Z,1.50
2022-08-03T21:32:32.753Z,2.27
2022-08-03T21:35:03.223Z,2.33
2022-08-03T21:37:35.282Z,2.50
2022-08-03T21:40:04.441Z,2.47
2022-08-03T21:42:32.847Z,2.10
2022-08-03T21:45:01.198Z,2.30
2022-08-03T21:47:29.645Z,1.53
2022-08-03T21:50:07.142Z,1.90
2022-08-03T21:52:43.579Z,1.80
2022-08-03T21:55:20.544Z,1.60
2022-08-03T21:57:54.396Z,1.50
2022-08-03T22:00:24.808Z,2.10
2022-08-03T22:02:57.360Z,1.53
2022-08-03T22:05:43.306Z,1.30
2022-08-03T22:08:15.328Z,1.70
2022-08-03T22:10:46.412Z,1.47
2022-08-03T22:13:23.339Z,1.40
2022-08-03T22:16:06.981Z,1.43
2022-08-03T22:18:37.639Z,1.50
2022-08-03T22:21:07.795Z,1.37
2022-08-03T22:23:41.694Z,1.60
2022-08-03T22:26:15.027Z,1.50
2022-08-03T22:28:44.346Z,2.37
2022-08-03T22:31:30.983Z,2.10
2022-08-03T22:34:01.506Z,1.93
2022-08-03T22:36:30.182Z,1.63
2022-08-03T22:39:00.722Z,1.63
2022-08-03T22:41:34.861Z,1.00
2022-08-03T22:44:07.383Z,1.00
2022-08-03T22:46:38.080Z,1.13
2022-08-03T22:49:07.691Z,1.20
2022-08-03T22:51:37.375Z,1.00
2022-08-03T22:54:12.641Z,1.00
2022-08-03T22:56:41.391Z,0.93
2022-08-03T22:59:41.378Z,1.00
2022-08-03T23:02:15.062Z,0.97
2022-08-03T23:04:52.854Z,1.03
2022-08-03T23:07:29.434Z,0.73
2022-08-03T23:09:59.473Z,1.20
2022-08-03T23:12:30.398Z,1.00
2022-08-03T23:15:03.163Z,1.00
2022-08-03T23:17:32.856Z,0.60
2022-08-03T23:20:04.866Z,0.70
2022-08-03T23:22:35.343Z,0.60
2022-08-03T23:25:06.837Z,0.60
2022-08-03T23:27:36.326Z,0.70
2022-08-03T23:30:05.213Z,0.60
2022-08-03T23:32:34.654Z,0.53
2022-08-03T23:35:23.448Z,0.60
2022-08-03T23:38:22.234Z,0.53
2022-08-03T23:40:52.654Z,0.70
2022-08-03T23:43:51.115Z,0.60
2022-08-03T23:46:11.345Z,0.57
2022-08-03T23:48:45.384Z,0.60
2022-08-03T23:51:20.946Z,0.50
2022-08-03T23:54:00.136Z,0.67
2022-08-03T23:56:41.190Z,0.60
2022-08-03T23:59:21.802Z,0.53
